sensor_id;sensor_type;location;lat;lon;timestamp;temperature;humidity
61004;DHT22;46889;37.310;13.582;2022-12-20T00:01:19;12.10;99.90
61004;DHT22;46889;37.310;13.582;2022-12-20T00:03:50;12.00;99.90
61004;DHT22;46889;37.310;13.582;2022-12-20T00:06:16;12.00;99.90
61004;DHT22;46889;37.310;13.582;2022-12-20T00:08:43;12.00;99.90
61004;DHT22;46889;37.310;13.582;2022-12-20T00:11:11;12.00;99.90
61004;DHT22;46889;37.310;13.582;2022-12-20T00:13:39;11.90;99.90
61004;DHT22;46889;37.310;13.582;2022-12-20T00:16:09;11.90;99.90
61004;DHT22;46889;37.310;13.582;2022-12-20T00:18:36;11.90;99.90
61004;DHT22;46889;37.310;13.582;2022-12-20T00:21:05;11.90;99.90
61004;DHT22;46889;37.310;13.582;2022-12-20T00:23:33;11.90;99.90
61004;DHT22;46889;37.310;13.582;2022-12-20T00:26:05;11.80;99.90
61004;DHT22;46889;37.310;13.582;2022-12-20T00:28:32;11.80;99.90
61004;DHT22;46889;37.310;13.582;2022-12-20T00:30:59;11.70;99.90
61004;DHT22;46889;37.310;13.582;2022-12-20T00:33:26;11.70;99.90
61004;DHT22;46889;37.310;13.582;2022-12-20T00:35:56;11.70;99.90
61004;DHT22;46889;37.310;13.582;2022-12-20T00:38:35;11.80;99.90
61004;DHT22;46889;37.310;13.582;2022-12-20T00:41:10;11.80;99.90
61004;DHT22;46889;37.310;13.582;2022-12-20T00:43:37;11.80;99.90
61004;DHT22;46889;37.310;13.582;2022-12-20T00:46:05;11.70;99.90
61004;DHT22;46889;37.310;13.582;2022-12-20T00:48:36;11.70;99.90
61004;DHT22;46889;37.310;13.582;2022-12-20T00:51:14;11.70;99.90
61004;DHT22;46889;37.310;13.582;2022-12-20T00:53:41;11.70;99.90
61004;DHT22;46889;37.310;13.582;2022-12-20T00:56:09;11.70;99.90
61004;DHT22;46889;37.310;13.582;2022-12-20T00:58:39;11.60;99.90
61004;DHT22;46889;37.310;13.582;2022-12-20T01:01:14;11.60;99.90
61004;DHT22;46889;37.310;13.582;2022-12-20T01:03:42;11.60;99.90
61004;DHT22;46889;37.310;13.582;2022-12-20T01:06:08;11.50;99.90
61004;DHT22;46889;37.310;13.582;2022-12-20T01:08:34;11.50;99.90
61004;DHT22;46889;37.310;13.582;2022-12-20T01:11:15;11.50;99.90
61004;DHT22;46889;37.310;13.582;2022-12-20T01:13:44;11.50;99.90
61004;DHT22;46889;37.310;13.582;2022-12-20T01:16:19;11.50;99.90
61004;DHT22;46889;37.310;13.582;2022-12-20T01:18:49;11.50;99.90
61004;DHT22;46889;37.310;13.582;2022-12-20T01:21:21;11.40;99.90
61004;DHT22;46889;37.310;13.582;2022-12-20T01:23:48;11.40;99.90
61004;DHT22;46889;37.310;13.582;2022-12-20T01:26:17;11.30;99.90
61004;DHT22;46889;37.310;13.582;2022-12-20T01:28:46;11.30;99.90
61004;DHT22;46889;37.310;13.582;2022-12-20T01:31:16;11.20;99.90
61004;DHT22;46889;37.310;13.582;2022-12-20T01:33:43;11.20;99.90
61004;DHT22;46889;37.310;13.582;2022-12-20T01:36:12;11.20;99.90
61004;DHT22;46889;37.310;13.582;2022-12-20T01:38:43;11.20;99.90
61004;DHT22;46889;37.310;13.582;2022-12-20T01:41:14;11.20;99.90
61004;DHT22;46889;37.310;13.582;2022-12-20T01:44:05;11.20;99.90
61004;DHT22;46889;37.310;13.582;2022-12-20T01:46:34;11.30;99.90
61004;DHT22;46889;37.310;13.582;2022-12-20T01:49:23;11.30;99.90
61004;DHT22;46889;37.310;13.582;2022-12-20T01:52:03;11.30;99.90
61004;DHT22;46889;37.310;13.582;2022-12-20T01:54:40;11.20;99.90
61004;DHT22;46889;37.310;13.582;2022-12-20T01:57:24;11.20;99.90
61004;DHT22;46889;37.310;13.582;2022-12-20T02:00:16;11.20;99.90
61004;DHT22;46889;37.310;13.582;2022-12-20T02:02:45;11.20;99.90
61004;DHT22;46889;37.310;13.582;2022-12-20T02:05:12;11.20;99.90
61004;DHT22;46889;37.310;13.582;2022-12-20T02:07:41;11.20;99.90
61004;DHT22;46889;37.310;13.582;2022-12-20T02:10:21;11.20;99.90
61004;DHT22;46889;37.310;13.582;2022-12-20T02:12:57;11.10;99.90
61004;DHT22;46889;37.310;13.582;2022-12-20T02:15:54;11.10;99.90
61004;DHT22;46889;37.310;13.582;2022-12-20T02:21:44;11.00;99.90
61004;DHT22;46889;37.310;13.582;2022-12-20T02:32:47;11.00;99.90
61004;DHT22;46889;37.310;13.582;2022-12-20T02:35:21;11.10;99.90
61004;DHT22;46889;37.310;13.582;2022-12-20T02:37:55;11.10;99.90
61004;DHT22;46889;37.310;13.582;2022-12-20T02:40:42;11.10;99.90
61004;DHT22;46889;37.310;13.582;2022-12-20T02:43:11;11.10;99.90
61004;DHT22;46889;37.310;13.582;2022-12-20T02:45:58;11.20;99.90
61004;DHT22;46889;37.310;13.582;2022-12-20T02:48:28;11.20;99.90
61004;DHT22;46889;37.310;13.582;2022-12-20T02:50:59;11.20;99.90
61004;DHT22;46889;37.310;13.582;2022-12-20T02:53:27;11.20;99.90
61004;DHT22;46889;37.310;13.582;2022-12-20T02:56:15;11.20;99.90
61004;DHT22;46889;37.310;13.582;2022-12-20T02:58:56;11.20;99.90
61004;DHT22;46889;37.310;13.582;2022-12-20T03:01:38;11.20;99.90
61004;DHT22;46889;37.310;13.582;2022-12-20T03:04:08;11.20;99.90
61004;DHT22;46889;37.310;13.582;2022-12-20T03:06:35;11.20;99.90
61004;DHT22;46889;37.310;13.582;2022-12-20T03:09:04;11.20;99.90
61004;DHT22;46889;37.310;13.582;2022-12-20T03:11:30;11.20;99.90
61004;DHT22;46889;37.310;13.582;2022-12-20T03:13:56;11.10;99.90
61004;DHT22;46889;37.310;13.582;2022-12-20T03:16:24;11.10;99.90
61004;DHT22;46889;37.310;13.582;2022-12-20T03:18:51;11.10;99.90
61004;DHT22;46889;37.310;13.582;2022-12-20T03:21:19;11.10;99.90
61004;DHT22;46889;37.310;13.582;2022-12-20T03:23:45;11.00;99.90
61004;DHT22;46889;37.310;13.582;2022-12-20T03:26:12;11.00;99.90
61004;DHT22;46889;37.310;13.582;2022-12-20T03:28:39;11.00;99.90
61004;DHT22;46889;37.310;13.582;2022-12-20T03:31:07;11.00;99.90
61004;DHT22;46889;37.310;13.582;2022-12-20T03:33:33;10.90;99.90
61004;DHT22;46889;37.310;13.582;2022-12-20T03:36:08;11.00;99.90
61004;DHT22;46889;37.310;13.582;2022-12-20T03:38:35;10.90;99.90
61004;DHT22;46889;37.310;13.582;2022-12-20T03:41:02;10.90;99.90
61004;DHT22;46889;37.310;13.582;2022-12-20T03:43:29;10.90;99.90
61004;DHT22;46889;37.310;13.582;2022-12-20T03:45:54;10.80;99.90
61004;DHT22;46889;37.310;13.582;2022-12-20T03:48:22;10.70;99.90
61004;DHT22;46889;37.310;13.582;2022-12-20T03:50:48;10.70;99.90
61004;DHT22;46889;37.310;13.582;2022-12-20T03:53:14;10.70;99.90
61004;DHT22;46889;37.310;13.582;2022-12-20T03:55:41;10.70;99.90
61004;DHT22;46889;37.310;13.582;2022-12-20T03:58:13;10.70;99.90
61004;DHT22;46889;37.310;13.582;2022-12-20T04:00:39;10.80;99.90
61004;DHT22;46889;37.310;13.582;2022-12-20T04:03:07;10.80;99.90
61004;DHT22;46889;37.310;13.582;2022-12-20T04:05:33;10.80;99.90
61004;DHT22;46889;37.310;13.582;2022-12-20T04:07:59;10.70;99.90
61004;DHT22;46889;37.310;13.582;2022-12-20T04:10:25;10.80;99.90
61004;DHT22;46889;37.310;13.582;2022-12-20T04:12:52;10.80;99.90
61004;DHT22;46889;37.310;13.582;2022-12-20T04:15:18;10.70;99.90
61004;DHT22;46889;37.310;13.582;2022-12-20T04:17:44;10.70;99.90
61004;DHT22;46889;37.310;13.582;2022-12-20T04:20:13;10.70;99.90
61004;DHT22;46889;37.310;13.582;2022-12-20T04:22:50;10.70;99.90
61004;DHT22;46889;37.310;13.582;2022-12-20T04:25:18;10.70;99.90
61004;DHT22;46889;37.310;13.582;2022-12-20T04:27:46;10.80;99.90
61004;DHT22;46889;37.310;13.582;2022-12-20T04:30:12;10.70;99.90
61004;DHT22;46889;37.310;13.582;2022-12-20T04:32:39;10.70;99.90
61004;DHT22;46889;37.310;13.582;2022-12-20T04:35:05;10.80;99.90
61004;DHT22;46889;37.310;13.582;2022-12-20T04:37:33;10.70;99.90
61004;DHT22;46889;37.310;13.582;2022-12-20T04:40:00;10.70;99.90
61004;DHT22;46889;37.310;13.582;2022-12-20T04:42:28;10.60;99.90
61004;DHT22;46889;37.310;13.582;2022-12-20T04:44:55;10.60;99.90
61004;DHT22;46889;37.310;13.582;2022-12-20T04:47:21;10.60;99.90
61004;DHT22;46889;37.310;13.582;2022-12-20T04:49:47;10.60;99.90
61004;DHT22;46889;37.310;13.582;2022-12-20T04:52:23;10.50;99.90
61004;DHT22;46889;37.310;13.582;2022-12-20T04:55:07;10.50;99.90
61004;DHT22;46889;37.310;13.582;2022-12-20T04:57:36;10.50;99.90
61004;DHT22;46889;37.310;13.582;2022-12-20T05:00:04;10.50;99.90
61004;DHT22;46889;37.310;13.582;2022-12-20T05:02:30;10.40;99.90
61004;DHT22;46889;37.310;13.582;2022-12-20T05:04:57;10.40;99.90
61004;DHT22;46889;37.310;13.582;2022-12-20T05:07:23;10.40;99.90
61004;DHT22;46889;37.310;13.582;2022-12-20T05:09:49;10.40;99.90
61004;DHT22;46889;37.310;13.582;2022-12-20T05:12:16;10.30;99.90
61004;DHT22;46889;37.310;13.582;2022-12-20T05:14:47;10.30;99.90
61004;DHT22;46889;37.310;13.582;2022-12-20T05:17:13;10.30;99.90
61004;DHT22;46889;37.310;13.582;2022-12-20T05:19:39;10.30;99.90
61004;DHT22;46889;37.310;13.582;2022-12-20T05:22:06;10.30;99.90
61004;DHT22;46889;37.310;13.582;2022-12-20T05:24:51;10.30;99.90
61004;DHT22;46889;37.310;13.582;2022-12-20T05:27:36;10.40;99.90
61004;DHT22;46889;37.310;13.582;2022-12-20T05:30:02;10.40;99.90
61004;DHT22;46889;37.310;13.582;2022-12-20T05:32:29;10.40;99.90
61004;DHT22;46889;37.310;13.582;2022-12-20T05:34:56;10.40;99.90
61004;DHT22;46889;37.310;13.582;2022-12-20T05:37:24;10.50;99.90
61004;DHT22;46889;37.310;13.582;2022-12-20T05:39:54;10.50;99.90
61004;DHT22;46889;37.310;13.582;2022-12-20T05:42:20;10.50;99.90
61004;DHT22;46889;37.310;13.582;2022-12-20T05:44:46;10.60;99.90
61004;DHT22;46889;37.310;13.582;2022-12-20T05:47:12;10.50;99.90
61004;DHT22;46889;37.310;13.582;2022-12-20T05:49:38;10.60;99.90
61004;DHT22;46889;37.310;13.582;2022-12-20T05:52:04;10.50;99.90
61004;DHT22;46889;37.310;13.582;2022-12-20T05:54:30;10.60;99.90
61004;DHT22;46889;37.310;13.582;2022-12-20T05:56:59;10.60;99.90
61004;DHT22;46889;37.310;13.582;2022-12-20T05:59:25;10.60;99.90
61004;DHT22;46889;37.310;13.582;2022-12-20T06:01:51;10.50;99.90
61004;DHT22;46889;37.310;13.582;2022-12-20T06:04:19;10.50;99.90
61004;DHT22;46889;37.310;13.582;2022-12-20T06:06:46;10.50;99.90
61004;DHT22;46889;37.310;13.582;2022-12-20T06:09:13;10.40;99.90
61004;DHT22;46889;37.310;13.582;2022-12-20T06:11:40;10.40;99.90
61004;DHT22;46889;37.310;13.582;2022-12-20T06:14:06;10.40;99.90
61004;DHT22;46889;37.310;13.582;2022-12-20T06:16:32;10.40;99.90
61004;DHT22;46889;37.310;13.582;2022-12-20T06:18:58;10.50;99.90
61004;DHT22;46889;37.310;13.582;2022-12-20T06:21:31;10.50;99.90
61004;DHT22;46889;37.310;13.582;2022-12-20T06:23:57;10.50;99.90
61004;DHT22;46889;37.310;13.582;2022-12-20T06:26:44;10.60;99.90
61004;DHT22;46889;37.310;13.582;2022-12-20T06:29:11;10.60;99.90
61004;DHT22;46889;37.310;13.582;2022-12-20T06:31:39;10.60;99.90
61004;DHT22;46889;37.310;13.582;2022-12-20T06:34:05;10.70;99.90
61004;DHT22;46889;37.310;13.582;2022-12-20T06:36:32;10.80;99.90
61004;DHT22;46889;37.310;13.582;2022-12-20T06:38:58;10.90;99.90
61004;DHT22;46889;37.310;13.582;2022-12-20T06:41:25;11.10;99.90
61004;DHT22;46889;37.310;13.582;2022-12-20T06:43:51;11.50;99.90
61004;DHT22;46889;37.310;13.582;2022-12-20T06:46:17;11.60;99.90
61004;DHT22;46889;37.310;13.582;2022-12-20T06:48:43;11.80;99.90
61004;DHT22;46889;37.310;13.582;2022-12-20T06:51:10;12.00;99.90
61004;DHT22;46889;37.310;13.582;2022-12-20T06:53:36;12.30;99.90
61004;DHT22;46889;37.310;13.582;2022-12-20T06:56:02;12.30;99.90
61004;DHT22;46889;37.310;13.582;2022-12-20T06:58:31;12.50;99.90
61004;DHT22;46889;37.310;13.582;2022-12-20T07:00:58;12.60;99.90
61004;DHT22;46889;37.310;13.582;2022-12-20T07:03:24;12.70;99.90
61004;DHT22;46889;37.310;13.582;2022-12-20T07:05:52;13.10;99.90
61004;DHT22;46889;37.310;13.582;2022-12-20T07:08:22;13.60;99.90
61004;DHT22;46889;37.310;13.582;2022-12-20T07:14:28;14.50;99.90
61004;DHT22;46889;37.310;13.582;2022-12-20T07:20:13;15.10;99.90
61004;DHT22;46889;37.310;13.582;2022-12-20T07:25:15;15.30;99.90
61004;DHT22;46889;37.310;13.582;2022-12-20T07:33:07;15.60;99.90
61004;DHT22;46889;37.310;13.582;2022-12-20T07:38:06;16.20;99.90
61004;DHT22;46889;37.310;13.582;2022-12-20T07:40:41;16.00;99.90
61004;DHT22;46889;37.310;13.582;2022-12-20T07:43:08;16.10;99.90
61004;DHT22;46889;37.310;13.582;2022-12-20T07:49:10;15.70;99.90
61004;DHT22;46889;37.310;13.582;2022-12-20T07:54:05;14.40;99.90
61004;DHT22;46889;37.310;13.582;2022-12-20T07:59:01;14.00;99.90
61004;DHT22;46889;37.310;13.582;2022-12-20T08:01:29;13.80;99.90
61004;DHT22;46889;37.310;13.582;2022-12-20T08:06:47;13.30;99.90
61004;DHT22;46889;37.310;13.582;2022-12-20T08:09:15;13.20;99.90
61004;DHT22;46889;37.310;13.582;2022-12-20T08:11:47;13.40;99.90
61004;DHT22;46889;37.310;13.582;2022-12-20T08:14:14;13.40;99.90
61004;DHT22;46889;37.310;13.582;2022-12-20T08:16:43;13.20;99.90
61004;DHT22;46889;37.310;13.582;2022-12-20T08:19:10;13.30;99.90
61004;DHT22;46889;37.310;13.582;2022-12-20T08:21:37;13.60;99.90
61004;DHT22;46889;37.310;13.582;2022-12-20T08:24:04;13.60;99.90
61004;DHT22;46889;37.310;13.582;2022-12-20T08:26:37;13.80;99.90
61004;DHT22;46889;37.310;13.582;2022-12-20T08:29:08;14.10;99.90
61004;DHT22;46889;37.310;13.582;2022-12-20T08:31:38;14.20;99.90
61004;DHT22;46889;37.310;13.582;2022-12-20T08:34:05;14.40;99.90
61004;DHT22;46889;37.310;13.582;2022-12-20T08:36:31;14.50;99.90
61004;DHT22;46889;37.310;13.582;2022-12-20T08:39:00;14.70;99.90
61004;DHT22;46889;37.310;13.582;2022-12-20T08:41:39;14.40;99.90
61004;DHT22;46889;37.310;13.582;2022-12-20T08:44:36;14.30;99.90
61004;DHT22;46889;37.310;13.582;2022-12-20T08:47:14;14.30;99.90
61004;DHT22;46889;37.310;13.582;2022-12-20T08:50:11;14.40;99.90
61004;DHT22;46889;37.310;13.582;2022-12-20T08:52:46;14.30;99.90
61004;DHT22;46889;37.310;13.582;2022-12-20T08:55:12;14.30;99.90
61004;DHT22;46889;37.310;13.582;2022-12-20T08:58:02;14.30;99.90
61004;DHT22;46889;37.310;13.582;2022-12-20T09:00:50;14.40;99.90
61004;DHT22;46889;37.310;13.582;2022-12-20T09:03:50;14.30;99.90
61004;DHT22;46889;37.310;13.582;2022-12-20T09:06:47;14.60;99.90
61004;DHT22;46889;37.310;13.582;2022-12-20T09:09:35;14.70;99.90
61004;DHT22;46889;37.310;13.582;2022-12-20T09:12:22;14.80;99.90
61004;DHT22;46889;37.310;13.582;2022-12-20T09:15:00;15.10;99.90
61004;DHT22;46889;37.310;13.582;2022-12-20T09:21:09;15.10;99.90
61004;DHT22;46889;37.310;13.582;2022-12-20T09:23:57;15.20;99.90
61004;DHT22;46889;37.310;13.582;2022-12-20T09:26:23;15.00;99.90
61004;DHT22;46889;37.310;13.582;2022-12-20T09:29:20;15.20;99.90
61004;DHT22;46889;37.310;13.582;2022-12-20T09:32:50;15.40;99.90
61004;DHT22;46889;37.310;13.582;2022-12-20T09:35:21;15.50;99.90
61004;DHT22;46889;37.310;13.582;2022-12-20T09:37:50;15.50;99.90
61004;DHT22;46889;37.310;13.582;2022-12-20T09:40:21;15.60;99.90
61004;DHT22;46889;37.310;13.582;2022-12-20T09:43:08;15.60;99.90
61004;DHT22;46889;37.310;13.582;2022-12-20T09:45:36;15.60;99.90
61004;DHT22;46889;37.310;13.582;2022-12-20T09:48:02;15.70;99.90
61004;DHT22;46889;37.310;13.582;2022-12-20T09:50:47;15.70;99.90
61004;DHT22;46889;37.310;13.582;2022-12-20T10:01:18;16.20;99.90
61004;DHT22;46889;37.310;13.582;2022-12-20T10:03:45;16.40;99.90
61004;DHT22;46889;37.310;13.582;2022-12-20T10:09:09;16.30;99.90
61004;DHT22;46889;37.310;13.582;2022-12-20T10:12:10;16.60;99.90
61004;DHT22;46889;37.310;13.582;2022-12-20T10:15:15;16.90;99.90
61004;DHT22;46889;37.310;13.582;2022-12-20T10:20:45;16.40;99.90
61004;DHT22;46889;37.310;13.582;2022-12-20T10:23:27;15.90;99.90
61004;DHT22;46889;37.310;13.582;2022-12-20T10:25:57;16.00;99.90
61004;DHT22;46889;37.310;13.582;2022-12-20T10:28:30;15.90;99.90
61004;DHT22;46889;37.310;13.582;2022-12-20T10:31:06;16.10;99.90
61004;DHT22;46889;37.310;13.582;2022-12-20T10:33:33;16.10;99.90
61004;DHT22;46889;37.310;13.582;2022-12-20T10:36:23;16.30;99.90
61004;DHT22;46889;37.310;13.582;2022-12-20T10:38:54;16.80;99.90
61004;DHT22;46889;37.310;13.582;2022-12-20T10:41:33;16.90;99.90
61004;DHT22;46889;37.310;13.582;2022-12-20T10:44:24;17.20;99.90
61004;DHT22;46889;37.310;13.582;2022-12-20T10:46:59;17.30;99.90
61004;DHT22;46889;37.310;13.582;2022-12-20T10:49:27;17.40;99.90
61004;DHT22;46889;37.310;13.582;2022-12-20T10:52:02;17.80;99.90
61004;DHT22;46889;37.310;13.582;2022-12-20T10:57:26;17.90;99.90
61004;DHT22;46889;37.310;13.582;2022-12-20T11:00:03;17.60;99.90
61004;DHT22;46889;37.310;13.582;2022-12-20T11:02:38;17.80;99.90
61004;DHT22;46889;37.310;13.582;2022-12-20T11:07:56;18.10;99.90
61004;DHT22;46889;37.310;13.582;2022-12-20T11:10:25;18.10;99.90
61004;DHT22;46889;37.310;13.582;2022-12-20T11:12:59;18.20;99.90
61004;DHT22;46889;37.310;13.582;2022-12-20T11:18:21;17.70;99.90
61004;DHT22;46889;37.310;13.582;2022-12-20T11:21:31;17.40;99.90
61004;DHT22;46889;37.310;13.582;2022-12-20T11:24:10;17.50;99.90
61004;DHT22;46889;37.310;13.582;2022-12-20T11:35:13;18.20;99.90
61004;DHT22;46889;37.310;13.582;2022-12-20T11:37:58;18.40;99.90
61004;DHT22;46889;37.310;13.582;2022-12-20T11:40:36;18.70;99.90
61004;DHT22;46889;37.310;13.582;2022-12-20T11:43:26;18.90;99.90
61004;DHT22;46889;37.310;13.582;2022-12-20T11:49:10;19.00;99.90
61004;DHT22;46889;37.310;13.582;2022-12-20T11:51:46;19.20;99.90
61004;DHT22;46889;37.310;13.582;2022-12-20T11:57:16;19.10;99.90
61004;DHT22;46889;37.310;13.582;2022-12-20T11:59:58;18.90;99.90
61004;DHT22;46889;37.310;13.582;2022-12-20T12:02:46;18.80;99.90
61004;DHT22;46889;37.310;13.582;2022-12-20T12:08:13;18.90;99.90
61004;DHT22;46889;37.310;13.582;2022-12-20T12:10:51;19.00;99.90
61004;DHT22;46889;37.310;13.582;2022-12-20T12:13:26;19.00;99.90
61004;DHT22;46889;37.310;13.582;2022-12-20T12:16:28;19.10;99.90
61004;DHT22;46889;37.310;13.582;2022-12-20T12:18:59;19.20;99.90
61004;DHT22;46889;37.310;13.582;2022-12-20T12:21:57;19.20;99.90
61004;DHT22;46889;37.310;13.582;2022-12-20T12:24:37;18.90;99.90
61004;DHT22;46889;37.310;13.582;2022-12-20T12:27:24;18.80;99.90
61004;DHT22;46889;37.310;13.582;2022-12-20T12:29:56;18.80;99.90
61004;DHT22;46889;37.310;13.582;2022-12-20T12:32:35;18.80;99.90
61004;DHT22;46889;37.310;13.582;2022-12-20T12:45:57;18.90;99.90
61004;DHT22;46889;37.310;13.582;2022-12-20T12:51:37;18.80;99.90
61004;DHT22;46889;37.310;13.582;2022-12-20T12:57:18;18.80;99.90
61004;DHT22;46889;37.310;13.582;2022-12-20T12:59:45;18.60;99.90
61004;DHT22;46889;37.310;13.582;2022-12-20T13:12:59;18.60;99.90
61004;DHT22;46889;37.310;13.582;2022-12-20T13:18:00;18.60;99.90
61004;DHT22;46889;37.310;13.582;2022-12-20T13:21:27;18.60;99.90
61004;DHT22;46889;37.310;13.582;2022-12-20T13:27:29;18.60;99.90
61004;DHT22;46889;37.310;13.582;2022-12-20T13:35:57;18.30;99.90
61004;DHT22;46889;37.310;13.582;2022-12-20T13:38:55;18.20;99.90
61004;DHT22;46889;37.310;13.582;2022-12-20T13:41:26;18.20;99.90
61004;DHT22;46889;37.310;13.582;2022-12-20T13:44:08;18.30;99.90
61004;DHT22;46889;37.310;13.582;2022-12-20T13:49:37;18.40;99.90
61004;DHT22;46889;37.310;13.582;2022-12-20T13:52:23;18.30;99.90
61004;DHT22;46889;37.310;13.582;2022-12-20T13:54:54;18.20;99.90
61004;DHT22;46889;37.310;13.582;2022-12-20T13:57:30;18.10;99.90
61004;DHT22;46889;37.310;13.582;2022-12-20T14:00:00;18.10;99.90
61004;DHT22;46889;37.310;13.582;2022-12-20T14:02:46;18.10;99.90
61004;DHT22;46889;37.310;13.582;2022-12-20T14:05:16;18.20;99.90
61004;DHT22;46889;37.310;13.582;2022-12-20T14:07:46;18.10;99.90
61004;DHT22;46889;37.310;13.582;2022-12-20T14:10:20;18.00;99.90
61004;DHT22;46889;37.310;13.582;2022-12-20T14:12:49;17.80;99.90
61004;DHT22;46889;37.310;13.582;2022-12-20T14:15:36;17.70;99.90
61004;DHT22;46889;37.310;13.582;2022-12-20T14:18:22;17.70;99.90
61004;DHT22;46889;37.310;13.582;2022-12-20T14:21:01;17.80;99.90
61004;DHT22;46889;37.310;13.582;2022-12-20T14:23:43;17.70;99.90
61004;DHT22;46889;37.310;13.582;2022-12-20T14:26:23;17.80;99.90
61004;DHT22;46889;37.310;13.582;2022-12-20T14:29:00;17.80;99.90
61004;DHT22;46889;37.310;13.582;2022-12-20T14:36:32;17.50;99.90
61004;DHT22;46889;37.310;13.582;2022-12-20T14:39:00;17.50;99.90
61004;DHT22;46889;37.310;13.582;2022-12-20T14:41:39;17.60;99.90
61004;DHT22;46889;37.310;13.582;2022-12-20T14:46:34;17.40;99.90
61004;DHT22;46889;37.310;13.582;2022-12-20T14:49:17;17.40;99.90
61004;DHT22;46889;37.310;13.582;2022-12-20T14:51:45;17.50;99.90
61004;DHT22;46889;37.310;13.582;2022-12-20T14:54:24;17.40;99.90
61004;DHT22;46889;37.310;13.582;2022-12-20T14:56:55;17.40;99.90
61004;DHT22;46889;37.310;13.582;2022-12-20T14:59:28;17.30;99.90
61004;DHT22;46889;37.310;13.582;2022-12-20T15:02:33;17.40;99.90
61004;DHT22;46889;37.310;13.582;2022-12-20T15:07:53;17.00;99.90
61004;DHT22;46889;37.310;13.582;2022-12-20T15:10:20;17.00;99.90
61004;DHT22;46889;37.310;13.582;2022-12-20T15:12:48;17.00;99.90
61004;DHT22;46889;37.310;13.582;2022-12-20T15:15:15;17.00;99.90
61004;DHT22;46889;37.310;13.582;2022-12-20T15:17:41;17.00;99.90
61004;DHT22;46889;37.310;13.582;2022-12-20T15:20:11;17.00;99.90
61004;DHT22;46889;37.310;13.582;2022-12-20T15:22:39;16.90;99.90
61004;DHT22;46889;37.310;13.582;2022-12-20T15:25:14;16.90;99.90
61004;DHT22;46889;37.310;13.582;2022-12-20T15:27:43;16.80;99.90
61004;DHT22;46889;37.310;13.582;2022-12-20T15:30:13;16.70;99.90
61004;DHT22;46889;37.310;13.582;2022-12-20T15:32:47;16.60;99.90
61004;DHT22;46889;37.310;13.582;2022-12-20T15:35:27;16.40;99.90
61004;DHT22;46889;37.310;13.582;2022-12-20T15:37:59;16.30;99.90
61004;DHT22;46889;37.310;13.582;2022-12-20T15:40:28;16.20;99.90
61004;DHT22;46889;37.310;13.582;2022-12-20T15:42:54;16.20;99.90
61004;DHT22;46889;37.310;13.582;2022-12-20T15:45:21;16.00;99.90
61004;DHT22;46889;37.310;13.582;2022-12-20T15:47:48;15.90;99.90
61004;DHT22;46889;37.310;13.582;2022-12-20T15:50:14;15.80;99.90
61004;DHT22;46889;37.310;13.582;2022-12-20T15:52:40;15.70;99.90
61004;DHT22;46889;37.310;13.582;2022-12-20T15:55:10;15.60;99.90
61004;DHT22;46889;37.310;13.582;2022-12-20T15:57:36;15.40;99.90
61004;DHT22;46889;37.310;13.582;2022-12-20T16:00:03;15.40;99.90
61004;DHT22;46889;37.310;13.582;2022-12-20T16:02:33;15.20;99.90
61004;DHT22;46889;37.310;13.582;2022-12-20T16:05:04;15.20;99.90
61004;DHT22;46889;37.310;13.582;2022-12-20T16:07:30;15.20;99.90
61004;DHT22;46889;37.310;13.582;2022-12-20T16:09:56;15.00;99.90
61004;DHT22;46889;37.310;13.582;2022-12-20T16:12:33;14.90;99.90
61004;DHT22;46889;37.310;13.582;2022-12-20T16:15:05;14.80;99.90
61004;DHT22;46889;37.310;13.582;2022-12-20T16:17:32;14.80;99.90
61004;DHT22;46889;37.310;13.582;2022-12-20T16:19:58;14.70;99.90
61004;DHT22;46889;37.310;13.582;2022-12-20T16:22:26;14.70;99.90
61004;DHT22;46889;37.310;13.582;2022-12-20T16:24:52;14.60;99.90
61004;DHT22;46889;37.310;13.582;2022-12-20T16:27:18;14.60;99.90
61004;DHT22;46889;37.310;13.582;2022-12-20T16:29:47;14.50;99.90
61004;DHT22;46889;37.310;13.582;2022-12-20T16:32:15;14.50;99.90
61004;DHT22;46889;37.310;13.582;2022-12-20T16:34:43;14.40;99.90
61004;DHT22;46889;37.310;13.582;2022-12-20T16:37:09;14.40;99.90
61004;DHT22;46889;37.310;13.582;2022-12-20T16:39:37;14.40;99.90
61004;DHT22;46889;37.310;13.582;2022-12-20T16:42:15;14.30;99.90
61004;DHT22;46889;37.310;13.582;2022-12-20T16:47:16;14.20;99.90
61004;DHT22;46889;37.310;13.582;2022-12-20T16:49:43;14.20;99.90
61004;DHT22;46889;37.310;13.582;2022-12-20T16:52:19;14.10;99.90
61004;DHT22;46889;37.310;13.582;2022-12-20T16:54:46;14.10;99.90
61004;DHT22;46889;37.310;13.582;2022-12-20T16:57:12;14.10;99.90
61004;DHT22;46889;37.310;13.582;2022-12-20T16:59:39;14.10;99.90
61004;DHT22;46889;37.310;13.582;2022-12-20T17:02:11;14.10;99.90
61004;DHT22;46889;37.310;13.582;2022-12-20T17:04:45;14.10;99.90
61004;DHT22;46889;37.310;13.582;2022-12-20T17:07:11;14.10;99.90
61004;DHT22;46889;37.310;13.582;2022-12-20T17:09:37;14.00;99.90
61004;DHT22;46889;37.310;13.582;2022-12-20T17:12:10;14.00;99.90
61004;DHT22;46889;37.310;13.582;2022-12-20T17:14:45;13.90;99.90
61004;DHT22;46889;37.310;13.582;2022-12-20T17:17:11;13.90;99.90
61004;DHT22;46889;37.310;13.582;2022-12-20T17:19:38;13.90;99.90
61004;DHT22;46889;37.310;13.582;2022-12-20T17:22:05;13.90;99.90
61004;DHT22;46889;37.310;13.582;2022-12-20T17:24:32;13.90;99.90
61004;DHT22;46889;37.310;13.582;2022-12-20T17:26:58;13.90;99.90
61004;DHT22;46889;37.310;13.582;2022-12-20T17:29:24;13.80;99.90
61004;DHT22;46889;37.310;13.582;2022-12-20T17:31:51;13.80;99.90
61004;DHT22;46889;37.310;13.582;2022-12-20T17:34:27;13.80;99.90
61004;DHT22;46889;37.310;13.582;2022-12-20T17:36:56;13.80;99.90
61004;DHT22;46889;37.310;13.582;2022-12-20T17:39:24;13.80;99.90
61004;DHT22;46889;37.310;13.582;2022-12-20T17:41:52;13.70;99.90
61004;DHT22;46889;37.310;13.582;2022-12-20T17:44:24;13.70;99.90
61004;DHT22;46889;37.310;13.582;2022-12-20T17:46:54;13.70;99.90
61004;DHT22;46889;37.310;13.582;2022-12-20T17:49:21;13.70;99.90
61004;DHT22;46889;37.310;13.582;2022-12-20T17:51:48;13.70;99.90
61004;DHT22;46889;37.310;13.582;2022-12-20T17:54:23;13.60;99.90
61004;DHT22;46889;37.310;13.582;2022-12-20T17:56:49;13.60;99.90
61004;DHT22;46889;37.310;13.582;2022-12-20T17:59:16;13.60;99.90
61004;DHT22;46889;37.310;13.582;2022-12-20T18:01:42;13.60;99.90
61004;DHT22;46889;37.310;13.582;2022-12-20T18:04:12;13.60;99.90
61004;DHT22;46889;37.310;13.582;2022-12-20T18:06:39;13.60;99.90